sensor_id;sensor_type;location;lat;lon;timestamp;P1;durP1;ratioP1;P2;durP2;ratioP2
45232;SDS011;30969;51.052;17.056;2023-04-06T00:04:24;67.80;;;33.47;;
45232;SDS011;30969;51.052;17.056;2023-04-06T00:09:29;60.33;;;31.45;;
45232;SDS011;30969;51.052;17.056;2023-04-06T00:14:33;66.88;;;34.88;;
45232;SDS011;30969;51.052;17.056;2023-04-06T00:19:37;57.83;;;31.20;;
45232;SDS011;30969;51.052;17.056;2023-04-06T00:24:41;62.55;;;34.42;;
45232;SDS011;30969;51.052;17.056;2023-04-06T00:29:45;76.82;;;43.00;;
45232;SDS011;30969;51.052;17.056;2023-04-06T00:34:48;87.60;;;42.45;;
45232;SDS011;30969;51.052;17.056;2023-04-06T00:39:53;74.68;;;35.95;;
45232;SDS011;30969;51.052;17.056;2023-04-06T00:44:57;64.55;;;34.63;;
45232;SDS011;30969;51.052;17.056;2023-04-06T00:50:01;60.58;;;34.42;;
45232;SDS011;30969;51.052;17.056;2023-04-06T00:55:07;73.30;;;37.22;;
45232;SDS011;30969;51.052;17.056;2023-04-06T01:00:11;68.00;;;35.67;;
45232;SDS011;30969;51.052;17.056;2023-04-06T01:05:16;73.65;;;38.25;;
45232;SDS011;30969;51.052;17.056;2023-04-06T01:10:24;82.70;;;39.72;;
45232;SDS011;30969;51.052;17.056;2023-04-06T01:15:28;73.85;;;37.08;;
45232;SDS011;30969;51.052;17.056;2023-04-06T01:20:32;70.82;;;37.47;;
45232;SDS011;30969;51.052;17.056;2023-04-06T01:25:37;75.00;;;40.08;;
45232;SDS011;30969;51.052;17.056;2023-04-06T01:30:40;68.10;;;36.53;;
45232;SDS011;30969;51.052;17.056;2023-04-06T01:35:44;64.88;;;33.42;;
45232;SDS011;30969;51.052;17.056;2023-04-06T01:40:48;58.85;;;31.98;;
45232;SDS011;30969;51.052;17.056;2023-04-06T01:45:52;63.88;;;32.15;;
45232;SDS011;30969;51.052;17.056;2023-04-06T01:50:55;64.97;;;33.47;;
45232;SDS011;30969;51.052;17.056;2023-04-06T01:56:00;64.78;;;34.28;;
45232;SDS011;30969;51.052;17.056;2023-04-06T02:01:03;61.00;;;31.95;;
45232;SDS011;30969;51.052;17.056;2023-04-06T02:06:07;59.35;;;33.35;;
45232;SDS011;30969;51.052;17.056;2023-04-06T02:11:12;67.75;;;33.63;;
45232;SDS011;30969;51.052;17.056;2023-04-06T02:16:16;64.63;;;34.45;;
45232;SDS011;30969;51.052;17.056;2023-04-06T02:21:20;60.42;;;32.85;;
45232;SDS011;30969;51.052;17.056;2023-04-06T02:26:24;61.63;;;32.95;;
45232;SDS011;30969;51.052;17.056;2023-04-06T02:31:28;64.70;;;32.85;;
45232;SDS011;30969;51.052;17.056;2023-04-06T02:36:31;54.63;;;31.20;;
45232;SDS011;30969;51.052;17.056;2023-04-06T02:41:36;64.60;;;32.83;;
45232;SDS011;30969;51.052;17.056;2023-04-06T02:46:40;64.68;;;33.45;;
45232;SDS011;30969;51.052;17.056;2023-04-06T02:51:43;69.45;;;34.53;;
45232;SDS011;30969;51.052;17.056;2023-04-06T02:56:48;65.97;;;35.63;;
45232;SDS011;30969;51.052;17.056;2023-04-06T03:01:52;65.05;;;36.03;;
45232;SDS011;30969;51.052;17.056;2023-04-06T03:06:56;77.28;;;39.78;;
45232;SDS011;30969;51.052;17.056;2023-04-06T03:12:04;69.95;;;35.53;;
45232;SDS011;30969;51.052;17.056;2023-04-06T03:17:10;73.30;;;39.30;;
45232;SDS011;30969;51.052;17.056;2023-04-06T03:22:14;66.35;;;36.40;;
45232;SDS011;30969;51.052;17.056;2023-04-06T03:27:19;64.95;;;35.83;;
45232;SDS011;30969;51.052;17.056;2023-04-06T03:32:22;63.95;;;34.63;;
45232;SDS011;30969;51.052;17.056;2023-04-06T03:37:26;60.60;;;34.40;;
45232;SDS011;30969;51.052;17.056;2023-04-06T03:42:31;67.85;;;35.63;;
45232;SDS011;30969;51.052;17.056;2023-04-06T03:47:35;66.30;;;35.78;;
45232;SDS011;30969;51.052;17.056;2023-04-06T03:52:38;64.45;;;33.33;;
45232;SDS011;30969;51.052;17.056;2023-04-06T03:57:43;64.13;;;34.90;;
45232;SDS011;30969;51.052;17.056;2023-04-06T04:02:47;59.67;;;32.05;;
45232;SDS011;30969;51.052;17.056;2023-04-06T04:07:50;61.78;;;35.60;;
45232;SDS011;30969;51.052;17.056;2023-04-06T04:12:55;53.28;;;30.27;;
45232;SDS011;30969;51.052;17.056;2023-04-06T04:17:58;61.03;;;30.63;;
45232;SDS011;30969;51.052;17.056;2023-04-06T04:23:02;57.10;;;32.05;;
45232;SDS011;30969;51.052;17.056;2023-04-06T04:28:07;62.65;;;31.55;;
45232;SDS011;30969;51.052;17.056;2023-04-06T04:33:10;68.80;;;34.00;;
45232;SDS011;30969;51.052;17.056;2023-04-06T04:38:14;64.28;;;34.50;;
45232;SDS011;30969;51.052;17.056;2023-04-06T04:43:19;63.58;;;32.33;;
45232;SDS011;30969;51.052;17.056;2023-04-06T04:48:22;65.55;;;33.45;;
45232;SDS011;30969;51.052;17.056;2023-04-06T04:53:26;66.30;;;32.30;;
45232;SDS011;30969;51.052;17.056;2023-04-06T04:58:31;59.83;;;31.73;;
45232;SDS011;30969;51.052;17.056;2023-04-06T05:03:36;56.03;;;29.95;;
45232;SDS011;30969;51.052;17.056;2023-04-06T05:08:41;57.85;;;29.85;;
45232;SDS011;30969;51.052;17.056;2023-04-06T05:13:46;54.55;;;29.42;;
45232;SDS011;30969;51.052;17.056;2023-04-06T05:18:50;53.58;;;29.30;;
45232;SDS011;30969;51.052;17.056;2023-04-06T05:23:54;57.33;;;30.50;;
45232;SDS011;30969;51.052;17.056;2023-04-06T05:28:59;56.47;;;29.30;;
45232;SDS011;30969;51.052;17.056;2023-04-06T05:34:03;51.40;;;28.30;;
45232;SDS011;30969;51.052;17.056;2023-04-06T05:39:07;53.38;;;30.15;;
45232;SDS011;30969;51.052;17.056;2023-04-06T05:44:13;55.65;;;29.80;;
45232;SDS011;30969;51.052;17.056;2023-04-06T05:49:16;55.00;;;28.02;;
45232;SDS011;30969;51.052;17.056;2023-04-06T05:54:19;50.33;;;28.55;;
45232;SDS011;30969;51.052;17.056;2023-04-06T05:59:24;60.80;;;29.42;;
45232;SDS011;30969;51.052;17.056;2023-04-06T06:04:28;73.07;;;37.70;;
45232;SDS011;30969;51.052;17.056;2023-04-06T06:09:31;69.97;;;36.92;;
45232;SDS011;30969;51.052;17.056;2023-04-06T06:14:36;67.22;;;35.25;;
45232;SDS011;30969;51.052;17.056;2023-04-06T06:19:40;66.85;;;34.88;;
45232;SDS011;30969;51.052;17.056;2023-04-06T06:24:43;60.85;;;35.55;;
45232;SDS011;30969;51.052;17.056;2023-04-06T06:29:48;60.33;;;32.70;;
45232;SDS011;30969;51.052;17.056;2023-04-06T06:34:51;56.47;;;33.58;;
45232;SDS011;30969;51.052;17.056;2023-04-06T06:39:55;53.35;;;31.67;;
45232;SDS011;30969;51.052;17.056;2023-04-06T06:45:00;55.20;;;30.92;;
45232;SDS011;30969;51.052;17.056;2023-04-06T06:50:04;49.38;;;30.38;;
45232;SDS011;30969;51.052;17.056;2023-04-06T06:55:09;52.58;;;31.35;;
45232;SDS011;30969;51.052;17.056;2023-04-06T07:00:14;51.97;;;29.88;;
45232;SDS011;30969;51.052;17.056;2023-04-06T07:05:19;54.95;;;31.75;;
45232;SDS011;30969;51.052;17.056;2023-04-06T07:10:29;51.05;;;29.58;;
45232;SDS011;30969;51.052;17.056;2023-04-06T07:15:34;51.80;;;30.00;;
45232;SDS011;30969;51.052;17.056;2023-04-06T07:20:39;54.58;;;32.05;;
45232;SDS011;30969;51.052;17.056;2023-04-06T07:25:43;55.13;;;32.35;;
45232;SDS011;30969;51.052;17.056;2023-04-06T07:30:48;53.95;;;32.20;;
45232;SDS011;30969;51.052;17.056;2023-04-06T07:35:52;48.75;;;29.90;;
45232;SDS011;30969;51.052;17.056;2023-04-06T07:40:56;51.88;;;30.60;;
45232;SDS011;30969;51.052;17.056;2023-04-06T07:46:01;58.90;;;30.55;;
45232;SDS011;30969;51.052;17.056;2023-04-06T07:51:04;50.63;;;30.48;;
45232;SDS011;30969;51.052;17.056;2023-04-06T07:56:08;41.70;;;26.42;;
45232;SDS011;30969;51.052;17.056;2023-04-06T08:01:13;44.83;;;25.70;;
45232;SDS011;30969;51.052;17.056;2023-04-06T08:06:17;32.95;;;19.45;;
45232;SDS011;30969;51.052;17.056;2023-04-06T08:11:20;26.15;;;16.05;;
45232;SDS011;30969;51.052;17.056;2023-04-06T08:16:25;26.13;;;16.17;;
45232;SDS011;30969;51.052;17.056;2023-04-06T08:21:29;26.23;;;16.17;;
45232;SDS011;30969;51.052;17.056;2023-04-06T08:26:33;26.25;;;15.63;;
45232;SDS011;30969;51.052;17.056;2023-04-06T08:31:40;25.10;;;16.23;;
45232;SDS011;30969;51.052;17.056;2023-04-06T08:36:43;27.52;;;15.43;;
45232;SDS011;30969;51.052;17.056;2023-04-06T08:41:48;18.80;;;11.60;;
45232;SDS011;30969;51.052;17.056;2023-04-06T08:46:54;19.17;;;9.80;;
45232;SDS011;30969;51.052;17.056;2023-04-06T08:51:58;22.30;;;10.77;;
45232;SDS011;30969;51.052;17.056;2023-04-06T08:57:03;17.88;;;11.35;;
45232;SDS011;30969;51.052;17.056;2023-04-06T09:02:09;21.15;;;12.57;;
45232;SDS011;30969;51.052;17.056;2023-04-06T09:07:20;21.83;;;12.68;;
45232;SDS011;30969;51.052;17.056;2023-04-06T09:12:25;20.80;;;11.95;;
45232;SDS011;30969;51.052;17.056;2023-04-06T09:17:31;19.67;;;12.07;;
45232;SDS011;30969;51.052;17.056;2023-04-06T09:22:36;20.55;;;10.70;;
45232;SDS011;30969;51.052;17.056;2023-04-06T09:27:40;17.80;;;9.43;;
45232;SDS011;30969;51.052;17.056;2023-04-06T09:32:48;18.60;;;10.40;;
45232;SDS011;30969;51.052;17.056;2023-04-06T09:37:53;16.08;;;10.07;;
45232;SDS011;30969;51.052;17.056;2023-04-06T09:42:57;17.38;;;9.80;;
45232;SDS011;30969;51.052;17.056;2023-04-06T09:48:02;15.88;;;9.52;;
45232;SDS011;30969;51.052;17.056;2023-04-06T09:53:07;18.85;;;10.25;;
45232;SDS011;30969;51.052;17.056;2023-04-06T09:58:12;17.15;;;11.15;;
45232;SDS011;30969;51.052;17.056;2023-04-06T10:03:23;13.23;;;9.23;;
45232;SDS011;30969;51.052;17.056;2023-04-06T10:08:35;14.63;;;9.10;;
45232;SDS011;30969;51.052;17.056;2023-04-06T10:13:43;14.93;;;7.97;;
45232;SDS011;30969;51.052;17.056;2023-04-06T10:18:51;12.60;;;6.90;;
45232;SDS011;30969;51.052;17.056;2023-04-06T10:24:01;15.18;;;9.05;;
45232;SDS011;30969;51.052;17.056;2023-04-06T10:29:11;14.00;;;7.43;;
45232;SDS011;30969;51.052;17.056;2023-04-06T10:34:16;11.52;;;6.50;;
45232;SDS011;30969;51.052;17.056;2023-04-06T10:39:24;13.18;;;7.80;;
45232;SDS011;30969;51.052;17.056;2023-04-06T10:44:28;15.25;;;8.48;;
45232;SDS011;30969;51.052;17.056;2023-04-06T10:49:36;11.55;;;7.35;;
45232;SDS011;30969;51.052;17.056;2023-04-06T10:54:41;10.88;;;7.95;;
45232;SDS011;30969;51.052;17.056;2023-04-06T10:59:47;13.80;;;8.75;;
45232;SDS011;30969;51.052;17.056;2023-04-06T11:04:56;15.32;;;7.55;;
45232;SDS011;30969;51.052;17.056;2023-04-06T11:09:59;9.55;;;6.30;;
45232;SDS011;30969;51.052;17.056;2023-04-06T11:15:17;11.65;;;5.60;;
45232;SDS011;30969;51.052;17.056;2023-04-06T11:20:22;11.95;;;6.53;;
45232;SDS011;30969;51.052;17.056;2023-04-06T11:25:26;11.80;;;6.13;;
45232;SDS011;30969;51.052;17.056;2023-04-06T11:30:31;12.02;;;7.13;;
45232;SDS011;30969;51.052;17.056;2023-04-06T11:35:36;16.33;;;6.53;;
45232;SDS011;30969;51.052;17.056;2023-04-06T11:40:40;10.68;;;6.38;;
45232;SDS011;30969;51.052;17.056;2023-04-06T11:45:44;10.18;;;6.93;;
45232;SDS011;30969;51.052;17.056;2023-04-06T11:50:49;10.93;;;6.63;;
45232;SDS011;30969;51.052;17.056;2023-04-06T11:55:59;13.77;;;6.93;;
45232;SDS011;30969;51.052;17.056;2023-04-06T12:01:03;13.93;;;8.43;;
45232;SDS011;30969;51.052;17.056;2023-04-06T12:06:08;12.05;;;6.70;;
45232;SDS011;30969;51.052;17.056;2023-04-06T12:11:12;11.88;;;6.28;;
45232;SDS011;30969;51.052;17.056;2023-04-06T12:16:15;11.48;;;7.40;;
45232;SDS011;30969;51.052;17.056;2023-04-06T12:21:22;11.75;;;7.68;;
45232;SDS011;30969;51.052;17.056;2023-04-06T12:26:27;12.63;;;7.63;;
45232;SDS011;30969;51.052;17.056;2023-04-06T12:31:32;15.45;;;8.18;;
45232;SDS011;30969;51.052;17.056;2023-04-06T12:36:42;12.23;;;8.57;;
45232;SDS011;30969;51.052;17.056;2023-04-06T12:41:46;11.60;;;7.82;;
45232;SDS011;30969;51.052;17.056;2023-04-06T12:46:49;12.07;;;8.27;;
45232;SDS011;30969;51.052;17.056;2023-04-06T12:51:54;13.32;;;8.15;;
45232;SDS011;30969;51.052;17.056;2023-04-06T12:56:58;12.38;;;8.38;;
45232;SDS011;30969;51.052;17.056;2023-04-06T13:02:03;12.13;;;8.15;;
45232;SDS011;30969;51.052;17.056;2023-04-06T13:07:08;12.65;;;7.85;;
45232;SDS011;30969;51.052;17.056;2023-04-06T13:12:11;11.52;;;7.93;;
45232;SDS011;30969;51.052;17.056;2023-04-06T13:17:14;12.60;;;8.00;;
45232;SDS011;30969;51.052;17.056;2023-04-06T13:22:19;9.75;;;7.13;;
45232;SDS011;30969;51.052;17.056;2023-04-06T13:27:24;9.27;;;7.05;;
45232;SDS011;30969;51.052;17.056;2023-04-06T13:32:29;9.13;;;6.72;;
45232;SDS011;30969;51.052;17.056;2023-04-06T13:37:34;10.25;;;6.38;;
45232;SDS011;30969;51.052;17.056;2023-04-06T13:42:38;12.25;;;7.10;;
45232;SDS011;30969;51.052;17.056;2023-04-06T13:47:42;9.07;;;6.72;;
45232;SDS011;30969;51.052;17.056;2023-04-06T13:52:47;9.27;;;6.32;;
45232;SDS011;30969;51.052;17.056;2023-04-06T13:57:51;10.57;;;6.72;;
45232;SDS011;30969;51.052;17.056;2023-04-06T14:02:55;13.63;;;6.25;;
45232;SDS011;30969;51.052;17.056;2023-04-06T14:08:00;10.35;;;6.65;;
45232;SDS011;30969;51.052;17.056;2023-04-06T14:13:04;12.60;;;7.38;;
45232;SDS011;30969;51.052;17.056;2023-04-06T14:18:08;13.50;;;7.28;;
45232;SDS011;30969;51.052;17.056;2023-04-06T14:23:13;13.20;;;7.82;;
45232;SDS011;30969;51.052;17.056;2023-04-06T14:28:17;11.60;;;7.50;;
45232;SDS011;30969;51.052;17.056;2023-04-06T14:33:23;9.82;;;6.93;;
45232;SDS011;30969;51.052;17.056;2023-04-06T14:38:29;10.90;;;8.32;;
45232;SDS011;30969;51.052;17.056;2023-04-06T14:43:33;11.07;;;7.55;;
45232;SDS011;30969;51.052;17.056;2023-04-06T14:48:37;9.88;;;7.03;;
45232;SDS011;30969;51.052;17.056;2023-04-06T14:53:42;12.95;;;7.55;;
45232;SDS011;30969;51.052;17.056;2023-04-06T14:58:46;9.65;;;7.15;;
45232;SDS011;30969;51.052;17.056;2023-04-06T15:03:50;10.05;;;6.82;;
45232;SDS011;30969;51.052;17.056;2023-04-06T15:08:55;9.63;;;7.53;;
45232;SDS011;30969;51.052;17.056;2023-04-06T15:13:59;9.25;;;6.57;;
45232;SDS011;30969;51.052;17.056;2023-04-06T15:19:03;9.18;;;6.57;;
45232;SDS011;30969;51.052;17.056;2023-04-06T15:24:08;10.10;;;6.70;;
45232;SDS011;30969;51.052;17.056;2023-04-06T15:29:13;10.32;;;5.80;;
45232;SDS011;30969;51.052;17.056;2023-04-06T15:34:17;10.32;;;6.55;;
45232;SDS011;30969;51.052;17.056;2023-04-06T15:39:25;8.65;;;6.13;;
45232;SDS011;30969;51.052;17.056;2023-04-06T15:44:29;12.32;;;6.50;;
45232;SDS011;30969;51.052;17.056;2023-04-06T15:49:33;11.93;;;6.53;;
45232;SDS011;30969;51.052;17.056;2023-04-06T15:54:38;9.85;;;7.18;;
45232;SDS011;30969;51.052;17.056;2023-04-06T15:59:42;11.73;;;6.45;;
45232;SDS011;30969;51.052;17.056;2023-04-06T16:04:45;10.48;;;6.90;;
45232;SDS011;30969;51.052;17.056;2023-04-06T16:09:50;10.43;;;6.57;;
45232;SDS011;30969;51.052;17.056;2023-04-06T16:14:54;10.55;;;7.82;;
45232;SDS011;30969;51.052;17.056;2023-04-06T16:19:57;14.20;;;7.65;;
45232;SDS011;30969;51.052;17.056;2023-04-06T16:25:02;10.10;;;7.15;;
45232;SDS011;30969;51.052;17.056;2023-04-06T16:30:07;10.45;;;6.32;;
45232;SDS011;30969;51.052;17.056;2023-04-06T16:35:12;10.65;;;6.78;;
45232;SDS011;30969;51.052;17.056;2023-04-06T16:40:17;9.52;;;6.70;;
45232;SDS011;30969;51.052;17.056;2023-04-06T16:45:20;10.88;;;7.63;;
45232;SDS011;30969;51.052;17.056;2023-04-06T16:50:24;11.27;;;7.45;;
45232;SDS011;30969;51.052;17.056;2023-04-06T16:55:29;12.90;;;8.35;;
45232;SDS011;30969;51.052;17.056;2023-04-06T17:00:32;12.23;;;8.45;;
45232;SDS011;30969;51.052;17.056;2023-04-06T17:05:38;11.70;;;8.43;;
45232;SDS011;30969;51.052;17.056;2023-04-06T17:10:43;10.93;;;7.60;;
45232;SDS011;30969;51.052;17.056;2023-04-06T17:16:03;12.27;;;8.43;;
45232;SDS011;30969;51.052;17.056;2023-04-06T17:21:08;14.13;;;8.40;;
45232;SDS011;30969;51.052;17.056;2023-04-06T17:26:16;10.10;;;7.90;;
45232;SDS011;30969;51.052;17.056;2023-04-06T17:31:20;11.88;;;7.93;;
45232;SDS011;30969;51.052;17.056;2023-04-06T17:36:24;12.63;;;8.18;;
45232;SDS011;30969;51.052;17.056;2023-04-06T17:41:30;11.90;;;8.30;;
45232;SDS011;30969;51.052;17.056;2023-04-06T17:46:35;14.80;;;8.40;;
45232;SDS011;30969;51.052;17.056;2023-04-06T17:51:39;19.50;;;9.30;;
45232;SDS011;30969;51.052;17.056;2023-04-06T17:56:44;15.13;;;9.63;;
45232;SDS011;30969;51.052;17.056;2023-04-06T18:01:49;18.35;;;10.75;;
45232;SDS011;30969;51.052;17.056;2023-04-06T18:06:53;14.35;;;9.15;;
45232;SDS011;30969;51.052;17.056;2023-04-06T18:11:58;13.18;;;9.73;;
45232;SDS011;30969;51.052;17.056;2023-04-06T18:17:02;18.05;;;9.10;;
45232;SDS011;30969;51.052;17.056;2023-04-06T18:22:05;20.85;;;11.88;;
45232;SDS011;30969;51.052;17.056;2023-04-06T18:27:10;16.65;;;10.48;;
45232;SDS011;30969;51.052;17.056;2023-04-06T18:32:15;17.08;;;10.05;;
45232;SDS011;30969;51.052;17.056;2023-04-06T18:37:18;16.45;;;10.05;;
45232;SDS011;30969;51.052;17.056;2023-04-06T18:42:23;14.20;;;9.07;;
45232;SDS011;30969;51.052;17.056;2023-04-06T18:47:27;15.40;;;9.43;;
45232;SDS011;30969;51.052;17.056;2023-04-06T18:52:30;17.95;;;9.27;;
45232;SDS011;30969;51.052;17.056;2023-04-06T18:57:35;13.65;;;8.50;;
45232;SDS011;30969;51.052;17.056;2023-04-06T19:02:38;13.38;;;8.48;;
45232;SDS011;30969;51.052;17.056;2023-04-06T19:07:42;14.23;;;8.55;;
45232;SDS011;30969;51.052;17.056;2023-04-06T19:12:51;14.95;;;9.88;;
45232;SDS011;30969;51.052;17.056;2023-04-06T19:17:54;13.35;;;9.63;;
45232;SDS011;30969;51.052;17.056;2023-04-06T19:22:58;15.98;;;10.50;;
45232;SDS011;30969;51.052;17.056;2023-04-06T19:28:03;20.48;;;11.95;;
45232;SDS011;30969;51.052;17.056;2023-04-06T19:33:09;21.05;;;12.48;;
45232;SDS011;30969;51.052;17.056;2023-04-06T19:38:13;18.08;;;11.85;;
45232;SDS011;30969;51.052;17.056;2023-04-06T19:43:18;17.83;;;10.88;;
45232;SDS011;30969;51.052;17.056;2023-04-06T19:48:22;18.15;;;9.95;;
45232;SDS011;30969;51.052;17.056;2023-04-06T19:53:26;15.75;;;10.73;;
45232;SDS011;30969;51.052;17.056;2023-04-06T19:58:31;23.10;;;12.82;;
45232;SDS011;30969;51.052;17.056;2023-04-06T20:03:34;22.95;;;12.45;;
45232;SDS011;30969;51.052;17.056;2023-04-06T20:08:38;15.75;;;11.18;;
45232;SDS011;30969;51.052;17.056;2023-04-06T20:13:43;16.98;;;11.27;;
45232;SDS011;30969;51.052;17.056;2023-04-06T20:18:47;15.73;;;11.30;;
45232;SDS011;30969;51.052;17.056;2023-04-06T20:23:50;16.23;;;10.88;;
45232;SDS011;30969;51.052;17.056;2023-04-06T20:28:55;19.55;;;11.25;;
45232;SDS011;30969;51.052;17.056;2023-04-06T20:33:59;15.05;;;10.32;;
45232;SDS011;30969;51.052;17.056;2023-04-06T20:39:03;19.05;;;11.20;;
45232;SDS011;30969;51.052;17.056;2023-04-06T20:44:08;19.35;;;11.95;;
45232;SDS011;30969;51.052;17.056;2023-04-06T20:49:11;17.02;;;10.60;;
45232;SDS011;30969;51.052;17.056;2023-04-06T20:54:15;16.63;;;11.77;;
45232;SDS011;30969;51.052;17.056;2023-04-06T20:59:20;21.00;;;12.20;;
45232;SDS011;30969;51.052;17.056;2023-04-06T21:04:23;19.98;;;12.18;;
45232;SDS011;30969;51.052;17.056;2023-04-06T21:09:27;14.90;;;10.77;;
45232;SDS011;30969;51.052;17.056;2023-04-06T21:14:32;22.13;;;10.98;;
45232;SDS011;30969;51.052;17.056;2023-04-06T21:19:36;18.08;;;11.95;;
45232;SDS011;30969;51.052;17.056;2023-04-06T21:24:39;19.83;;;11.55;;
45232;SDS011;30969;51.052;17.056;2023-04-06T21:29:44;18.25;;;12.23;;
45232;SDS011;30969;51.052;17.056;2023-04-06T21:34:48;18.27;;;11.88;;
45232;SDS011;30969;51.052;17.056;2023-04-06T21:39:52;19.23;;;12.38;;
45232;SDS011;30969;51.052;17.056;2023-04-06T21:44:59;19.08;;;11.27;;
45232;SDS011;30969;51.052;17.056;2023-04-06T21:50:02;19.13;;;12.45;;
45232;SDS011;30969;51.052;17.056;2023-04-06T21:55:06;21.65;;;12.52;;
45232;SDS011;30969;51.052;17.056;2023-04-06T22:00:12;13.88;;;9.80;;
45232;SDS011;30969;51.052;17.056;2023-04-06T22:05:17;17.25;;;11.30;;
45232;SDS011;30969;51.052;17.056;2023-04-06T22:10:20;20.92;;;11.48;;
45232;SDS011;30969;51.052;17.056;2023-04-06T22:15:25;17.27;;;11.40;;
45232;SDS011;30969;51.052;17.056;2023-04-06T22:20:29;18.50;;;11.75;;
45232;SDS011;30969;51.052;17.056;2023-04-06T22:25:32;19.55;;;11.93;;
45232;SDS011;30969;51.052;17.056;2023-04-06T22:30:37;18.35;;;12.10;;
45232;SDS011;30969;51.052;17.056;2023-04-06T22:35:41;18.98;;;11.90;;
45232;SDS011;30969;51.052;17.056;2023-04-06T22:40:44;20.08;;;12.23;;
45232;SDS011;30969;51.052;17.056;2023-04-06T22:45:49;23.88;;;13.80;;
45232;SDS011;30969;51.052;17.056;2023-04-06T22:50:53;25.45;;;14.25;;
45232;SDS011;30969;51.052;17.056;2023-04-06T22:55:57;21.35;;;13.80;;
45232;SDS011;30969;51.052;17.056;2023-04-06T23:01:02;19.50;;;12.48;;
45232;SDS011;30969;51.052;17.056;2023-04-06T23:06:06;21.50;;;12.02;;
45232;SDS011;30969;51.052;17.056;2023-04-06T23:11:09;19.75;;;12.75;;
45232;SDS011;30969;51.052;17.056;2023-04-06T23:16:14;20.83;;;12.48;;
45232;SDS011;30969;51.052;17.056;2023-04-06T23:21:18;23.55;;;12.30;;
45232;SDS011;30969;51.052;17.056;2023-04-06T23:26:21;22.30;;;14.20;;
45232;SDS011;30969;51.052;17.056;2023-04-06T23:31:26;19.67;;;12.23;;
45232;SDS011;30969;51.052;17.056;2023-04-06T23:36:30;23.77;;;14.20;;
45232;SDS011;30969;51.052;17.056;2023-04-06T23:41:34;18.98;;;12.10;;
45232;SDS011;30969;51.052;17.056;2023-04-06T23:46:38;16.05;;;11.60;;
45232;SDS011;30969;51.052;17.056;2023-04-06T23:51:42;18.05;;;11.60;;
45232;SDS011;30969;51.052;17.056;2023-04-06T23:56:46;17.73;;;11.30;;
